Time;durP1;ratioP1;P1;durP2;ratioP2;P2;SDS_P1;SDS_P2;PMS_P1;PMS_P2;Temp;Humidity;BMP_temperature;BMP_pressure;BME280_temperature;BME280_humidity;BME280_pressure;Samples;Min_cycle;Max_cycle;Signal;HPM_P1;HPM_P2
2022/04/20 00:01:49;;;;;;;50.40;24.53;;;;;;;4.02;94.15;94400.72;5023033;28;20204;-78
2022/04/20 00:04:16;;;;;;;49.77;26.10;;;;;;;4.03;94.15;94401.50;5019779;28;20730;-76
2022/04/20 00:06:44;;;;;;;50.63;26.50;;;;;;;3.98;94.34;94396.94;5021999;28;20294;-77
2022/04/20 00:09:11;;;;;;;51.00;25.10;;;;;;;3.99;95.16;94389.03;5021229;28;20196;-76
2022/04/20 00:11:38;;;;;;;45.77;23.93;;;;;;;4.00;94.75;94395.78;5019852;28;20196;-76
2022/04/20 00:14:05;;;;;;;49.03;24.97;;;;;;;3.92;96.36;94395.91;5022552;28;20208;-76
2022/04/20 00:16:32;;;;;;;41.30;23.40;;;;;;;3.90;96.43;94389.31;5019873;28;20391;-76
2022/04/20 00:18:58;;;;;;;47.47;22.43;;;;;;;3.89;96.42;94390.31;5021879;28;20455;-76
2022/04/20 00:21:25;;;;;;;40.97;22.83;;;;;;;3.88;96.84;94397.22;5020565;28;20227;-76
2022/04/20 00:23:54;;;;;;;35.10;20.77;;;;;;;3.83;96.66;94391.84;5019228;28;20218;-76
2022/04/20 00:26:21;;;;;;;33.43;20.03;;;;;;;3.80;97.36;94401.69;5020485;28;20202;-76
2022/04/20 00:28:47;;;;;;;34.13;18.33;;;;;;;3.73;97.30;94390.53;5022079;28;20266;-76
2022/04/20 00:31:14;;;;;;;40.87;21.47;;;;;;;3.69;96.36;94389.34;5019746;28;20187;-76
2022/04/20 00:33:41;;;;;;;45.47;22.23;;;;;;;3.61;97.04;94382.53;5019709;28;20196;-77
2022/04/20 00:36:09;;;;;;;40.93;23.93;;;;;;;3.54;98.13;94381.66;5020357;28;20659;-77
2022/04/20 00:38:36;;;;;;;41.27;22.83;;;;;;;3.65;97.90;94386.31;5021775;28;20192;-77
2022/04/20 00:41:04;;;;;;;46.23;24.00;;;;;;;3.68;97.66;94382.59;5019817;28;20198;-77
2022/04/20 00:43:31;;;;;;;45.20;24.73;;;;;;;3.66;97.80;94382.00;5019893;28;20265;-77
2022/04/20 00:45:59;;;;;;;44.13;23.90;;;;;;;3.66;97.14;94387.94;5021838;28;20643;-77
2022/04/20 00:48:27;;;;;;;39.83;22.27;;;;;;;3.66;97.33;94390.50;5022728;28;20264;-76
2022/04/20 00:50:54;;;;;;;38.10;20.70;;;;;;;3.45;96.11;94387.88;5019294;28;20199;-76
2022/04/20 00:53:21;;;;;;;35.27;20.17;;;;;;;3.25;96.62;94390.25;5020918;28;20644;-77
2022/04/20 00:55:47;;;;;;;37.67;20.53;;;;;;;3.22;97.22;94389.78;5020714;28;20203;-77
2022/04/20 00:58:16;;;;;;;48.50;23.80;;;;;;;3.17;98.80;94389.53;5018540;28;20206;-76
2022/04/20 01:00:42;;;;;;;38.73;22.37;;;;;;;3.18;99.54;94385.97;5019615;28;20283;-76
2022/04/20 01:03:10;;;;;;;31.30;19.50;;;;;;;3.19;98.87;94388.38;5019986;28;20195;-77
2022/04/20 01:05:37;;;;;;;38.17;19.97;;;;;;;3.12;98.75;94391.81;5020739;28;20186;-76
2022/04/20 01:08:04;;;;;;;39.57;23.00;;;;;;;3.02;100.00;94381.06;5019854;28;20192;-76
2022/04/20 01:10:32;;;;;;;54.20;29.37;;;;;;;3.08;100.00;94383.72;5019300;28;20183;-76
2022/04/20 01:12:59;;;;;;;50.23;31.40;;;;;;;3.07;100.00;94384.69;5020753;28;20677;-76
2022/04/20 01:15:28;;;;;;;76.10;48.70;;;;;;;3.07;100.00;94382.09;5021419;28;20195;-78
2022/04/20 01:17:55;;;;;;;93.00;57.17;;;;;;;3.08;99.85;94381.16;5019138;28;20202;-76
2022/04/20 01:20:21;;;;;;;108.77;65.27;;;;;;;3.13;100.00;94380.59;5019343;28;20326;-76
2022/04/20 01:22:50;;;;;;;108.10;63.20;;;;;;;3.18;100.00;94381.66;5019636;28;20198;-76
2022/04/20 01:25:16;;;;;;;97.27;61.60;;;;;;;3.15;100.00;94383.78;5019019;28;20301;-78
2022/04/20 01:27:43;;;;;;;247.83;156.03;;;;;;;3.12;100.00;94387.50;5019188;28;20234;-77
2022/04/20 01:30:11;;;;;;;110.37;64.80;;;;;;;3.18;100.00;94383.41;5019864;28;20195;-77
2022/04/20 01:32:38;;;;;;;90.90;51.73;;;;;;;3.08;100.00;94383.72;5021177;28;20202;-78
2022/04/20 01:35:06;;;;;;;98.27;53.00;;;;;;;3.12;100.00;94392.63;5019005;28;20195;-77
2022/04/20 01:37:32;;;;;;;88.47;51.10;;;;;;;3.08;100.00;94388.03;5019071;28;20198;-77
2022/04/20 01:40:00;;;;;;;89.97;50.70;;;;;;;3.07;100.00;94389.81;5020639;28;20665;-77
2022/04/20 01:42:27;;;;;;;92.67;51.90;;;;;;;3.07;100.00;94391.56;5019588;28;20191;-77
2022/04/20 01:44:54;;;;;;;94.23;53.07;;;;;;;3.08;100.00;94390.59;5020476;28;20698;-77
2022/04/20 01:47:21;;;;;;;83.47;44.97;;;;;;;3.09;100.00;94399.91;5018787;28;20711;-77
2022/04/20 01:49:48;;;;;;;77.13;41.97;;;;;;;3.07;100.00;94389.00;5020021;28;20202;-80
2022/04/20 01:52:14;;;;;;;69.13;36.43;;;;;;;3.07;100.00;94394.13;5020769;28;20199;-80
2022/04/20 01:54:41;;;;;;;63.70;34.97;;;;;;;3.07;100.00;94396.72;5018385;28;20195;-79
2022/04/20 01:57:10;;;;;;;62.00;33.27;;;;;;;3.02;99.93;94397.25;5021490;28;20752;-79
2022/04/20 01:59:36;;;;;;;63.17;32.77;;;;;;;2.99;100.00;94389.91;5018825;28;20184;-78
2022/04/20 02:04:48;;;;;;;97.83;55.60;;;;;;;2.94;100.00;94392.22;5019785;28;20763;-79
2022/04/20 02:07:15;;;;;;;85.37;48.53;;;;;;;2.86;100.00;94402.56;5019039;28;20634;-79
2022/04/20 02:09:42;;;;;;;78.13;43.93;;;;;;;2.91;100.00;94402.03;5022867;28;20195;-79
2022/04/20 02:12:10;;;;;;;57.47;33.17;;;;;;;2.97;100.00;94399.56;5023737;28;20541;-79
2022/04/20 02:14:37;;;;;;;70.53;37.23;;;;;;;3.00;100.00;94390.72;5024424;28;20584;-77
2022/04/20 02:17:05;;;;;;;61.87;32.77;;;;;;;3.00;100.00;94388.91;5023565;28;20572;-79
2022/04/20 02:19:31;;;;;;;60.93;34.20;;;;;;;3.05;100.00;94391.78;5024179;28;20223;-76
2022/04/20 02:21:58;;;;;;;62.57;36.83;;;;;;;3.05;100.00;94399.47;5022218;28;20254;-77
2022/04/20 02:24:25;;;;;;;75.90;44.13;;;;;;;2.98;100.00;94390.06;5023548;28;20222;-77
2022/04/20 02:26:52;;;;;;;72.60;43.33;;;;;;;3.01;100.00;94394.84;5024290;28;20581;-77
2022/04/20 02:29:20;;;;;;;74.10;41.93;;;;;;;2.99;100.00;94384.78;5024078;28;20191;-77
2022/04/20 02:31:46;;;;;;;73.60;41.63;;;;;;;2.97;100.00;94386.72;5023070;28;20266;-78
2022/04/20 02:34:13;;;;;;;68.83;39.57;;;;;;;2.94;100.00;94379.38;5022294;28;20190;-77
2022/04/20 02:36:40;;;;;;;67.30;38.87;;;;;;;2.95;100.00;94382.72;5023927;28;20194;-77
2022/04/20 02:39:07;;;;;;;63.27;38.57;;;;;;;2.94;100.00;94378.59;5023091;28;20267;-79
2022/04/20 02:41:36;;;;;;;62.97;37.57;;;;;;;2.90;100.00;94379.91;5022361;28;20572;-79
2022/04/20 02:44:04;;;;;;;62.80;38.43;;;;;;;2.88;100.00;94374.97;5024306;28;20223;-78
2022/04/20 02:46:33;;;;;;;69.90;39.20;;;;;;;2.89;100.00;94379.09;5022272;28;20574;-76
2022/04/20 02:49:00;;;;;;;63.90;37.03;;;;;;;2.84;100.00;94377.09;5021928;28;20188;-76
2022/04/20 02:51:26;;;;;;;51.00;29.20;;;;;;;2.83;100.00;94374.69;5022948;28;20560;-77
2022/04/20 02:53:53;;;;;;;52.10;28.97;;;;;;;2.84;100.00;94384.78;5023196;28;20286;-76
2022/04/20 02:56:20;;;;;;;51.57;30.17;;;;;;;2.89;100.00;94380.91;5022239;28;20564;-76
2022/04/20 02:58:47;;;;;;;44.13;25.87;;;;;;;2.93;100.00;94390.63;5022384;28;20198;-76
2022/04/20 03:01:14;;;;;;;42.33;23.90;;;;;;;2.87;100.00;94388.75;5023054;28;20581;-76
2022/04/20 03:03:42;;;;;;;35.20;19.70;;;;;;;2.82;100.00;94391.88;5021361;28;20210;-77
2022/04/20 03:06:09;;;;;;;38.10;22.37;;;;;;;2.83;100.00;94388.31;5022243;28;20349;-77
2022/04/20 03:08:36;;;;;;;49.57;24.40;;;;;;;2.81;100.00;94392.84;5023627;28;20203;-77
2022/04/20 03:11:02;;;;;;;35.57;20.47;;;;;;;2.89;100.00;94389.38;5022775;28;20571;-77
2022/04/20 03:13:29;;;;;;;32.67;18.23;;;;;;;2.98;100.00;94397.78;5022018;28;20691;-77
2022/04/20 03:15:56;;;;;;;28.40;17.07;;;;;;;3.01;100.00;94397.41;5025376;28;20218;-77
2022/04/20 03:18:23;;;;;;;24.07;15.60;;;;;;;2.94;100.00;94391.41;5021149;28;20278;-76
2022/04/20 03:20:52;;;;;;;30.13;16.13;;;;;;;3.05;100.00;94404.59;5020613;28;20234;-76
2022/04/20 03:23:18;;;;;;;30.63;15.53;;;;;;;3.13;100.00;94404.50;5022372;28;20682;-76
2022/04/20 03:25:45;;;;;;;32.67;16.63;;;;;;;3.09;100.00;94397.34;5020891;28;20223;-77
2022/04/20 03:28:12;;;;;;;26.83;16.77;;;;;;;3.16;100.00;94393.06;5021733;28;20203;-76
2022/04/20 03:30:39;;;;;;;29.30;16.50;;;;;;;3.17;100.00;94382.66;5021018;28;20191;-77
2022/04/20 03:33:08;;;;;;;31.30;17.53;;;;;;;3.23;100.00;94379.34;5022242;28;20191;-76
2022/04/20 03:35:36;;;;;;;27.87;17.00;;;;;;;3.15;100.00;94382.00;5022737;28;20227;-77
2022/04/20 03:38:04;;;;;;;27.30;15.93;;;;;;;3.15;100.00;94383.78;5022658;28;20321;-79
2022/04/20 03:40:32;;;;;;;29.33;17.93;;;;;;;3.06;100.00;94367.69;5015481;28;20644;-73
2022/04/20 03:42:59;;;;;;;30.30;19.33;;;;;;;3.19;100.00;94370.41;5025813;28;20202;-74
2022/04/20 03:45:26;;;;;;;32.40;18.87;;;;;;;3.22;100.00;94374.38;5023350;28;20230;-74
2022/04/20 03:47:53;;;;;;;27.70;17.10;;;;;;;3.20;100.00;94377.13;5031159;28;20557;-74
2022/04/20 03:50:21;;;;;;;23.30;15.63;;;;;;;3.24;100.00;94383.50;5031728;28;20206;-73
2022/04/20 03:52:48;;;;;;;24.60;16.10;;;;;;;3.23;100.00;94381.13;5028761;28;20672;-73
2022/04/20 03:55:16;;;;;;;25.63;15.57;;;;;;;3.27;100.00;94378.00;5030494;28;20679;-74
2022/04/20 03:57:43;;;;;;;27.70;15.33;;;;;;;3.39;100.00;94383.47;5030992;28;20199;-73
2022/04/20 04:00:11;;;;;;;29.60;16.90;;;;;;;3.48;100.00;94381.59;5031002;28;20199;-73
2022/04/20 04:02:38;;;;;;;36.10;19.53;;;;;;;3.47;100.00;94380.78;5031399;28;20191;-74
2022/04/20 04:05:05;;;;;;;32.10;18.63;;;;;;;3.48;100.00;94381.59;5030814;28;20219;-73
2022/04/20 04:07:32;;;;;;;40.93;22.20;;;;;;;3.49;100.00;94389.13;5031577;28;20196;-74
2022/04/20 04:09:59;;;;;;;41.03;24.50;;;;;;;3.46;100.00;94379.22;5029101;28;20206;-73
2022/04/20 04:12:27;;;;;;;42.33;25.43;;;;;;;3.46;100.00;94375.84;5031349;28;20480;-73
2022/04/20 04:14:54;;;;;;;42.37;24.20;;;;;;;3.48;100.00;94369.56;5030800;28;20198;-74
2022/04/20 04:17:21;;;;;;;40.97;24.33;;;;;;;3.37;100.00;94359.75;5029979;28;20214;-74
2022/04/20 04:19:48;;;;;;;39.13;23.23;;;;;;;3.46;100.00;94361.25;5031486;28;20191;-74
2022/04/20 04:22:15;;;;;;;29.97;17.23;;;;;;;3.49;100.00;94355.75;5031197;28;20230;-74
2022/04/20 04:24:42;;;;;;;42.27;18.33;;;;;;;3.53;100.00;94356.94;5030348;28;20219;-72
2022/04/20 04:27:10;;;;;;;22.50;13.17;;;;;;;3.58;100.00;94359.75;5030780;28;20229;-73
2022/04/20 04:29:39;;;;;;;20.57;12.53;;;;;;;3.57;100.00;94357.38;5030698;28;20194;-73
2022/04/20 04:32:07;;;;;;;20.33;12.50;;;;;;;3.66;100.00;94357.09;5030693;28;20685;-75
2022/04/20 04:34:34;;;;;;;23.20;13.20;;;;;;;3.66;100.00;94348.59;5030822;28;20187;-73
2022/04/20 04:37:02;;;;;;;19.13;11.70;;;;;;;3.77;99.50;94345.53;5030692;28;20206;-73
2022/04/20 04:39:29;;;;;;;26.17;13.33;;;;;;;3.78;99.24;94349.69;5021048;28;20205;-85
2022/04/20 04:42:00;;;;;;;23.90;12.70;;;;;;;3.81;98.22;94362.94;5029981;28;20639;-75
2022/04/20 04:44:27;;;;;;;19.60;12.10;;;;;;;3.81;97.62;94369.88;5030123;28;20222;-74
2022/04/20 04:49:40;;;;;;;39.60;21.80;;;;;;;3.52;99.40;94367.41;5029385;28;20669;-75
2022/04/20 04:52:11;;;;;;;43.70;23.63;;;;;;;3.55;99.59;94367.84;5029206;28;20638;-73
2022/04/20 04:54:39;;;;;;;41.83;22.77;;;;;;;3.63;100.00;94374.66;5026665;28;20200;-74
2022/04/20 04:57:07;;;;;;;41.17;23.70;;;;;;;3.76;99.65;94372.19;5022505;28;20203;-73
2022/04/20 04:59:34;;;;;;;39.53;20.73;;;;;;;3.86;100.00;94370.94;5019822;28;20233;-73
2022/04/20 05:02:03;;;;;;;35.27;19.47;;;;;;;3.87;99.40;94361.41;5018236;28;20287;-75
2022/04/20 05:04:30;;;;;;;35.77;18.40;;;;;;;3.98;98.22;94389.22;5018372;28;20257;-74
2022/04/20 05:06:57;;;;;;;27.13;16.23;;;;;;;3.96;97.04;94384.25;5020307;28;20223;-74
2022/04/20 05:09:24;;;;;;;32.53;16.47;;;;;;;3.93;97.45;94379.47;5019745;28;20203;-73
2022/04/20 05:11:51;;;;;;;35.87;16.27;;;;;;;3.97;97.37;94390.19;5019223;28;20260;-73
2022/04/20 05:14:20;;;;;;;31.83;16.00;;;;;;;4.03;97.17;94393.81;5020526;28;20195;-74
2022/04/20 05:16:47;;;;;;;25.37;14.77;;;;;;;4.09;97.71;94401.59;5012324;28;20588;-74
2022/04/20 05:19:15;;;;;;;26.03;15.73;;;;;;;4.09;96.94;94401.59;5022070;28;20686;-78
2022/04/20 05:21:43;;;;;;;26.90;15.10;;;;;;;4.14;96.50;94408.72;5018094;28;20231;-75
2022/04/20 05:24:10;;;;;;;29.33;16.97;;;;;;;4.11;95.49;94406.53;5019144;28;20209;-73
2022/04/20 05:26:37;;;;;;;31.00;17.83;;;;;;;4.11;97.09;94417.59;5021453;28;20308;-73
2022/04/20 05:29:03;;;;;;;34.77;20.43;;;;;;;4.05;96.72;94408.06;5017007;28;20187;-72
2022/04/20 05:31:30;;;;;;;37.47;23.30;;;;;;;3.64;99.77;94412.19;5016796;28;20194;-72
2022/04/20 05:33:57;;;;;;;38.60;22.53;;;;;;;3.22;100.00;94405.19;5020389;28;20256;-72
2022/04/20 05:41:39;;;;;;;41.03;22.90;;;;;;;3.27;100.00;94419.09;5020566;28;20201;-74
2022/04/20 05:41:56;;;;;;;41.17;21.70;;;;;;;3.16;100.00;94408.47;5019870;28;20240;-73
2022/04/20 05:44:22;;;;;;;44.23;23.40;;;;;;;3.30;100.00;94411.03;5019937;28;20221;-73
2022/04/20 05:46:49;;;;;;;36.07;20.80;;;;;;;3.36;100.00;94410.31;5019461;28;20211;-73
2022/04/20 05:49:16;;;;;;;39.97;22.20;;;;;;;3.17;100.00;94405.75;5018310;28;20231;-72
2022/04/20 05:51:44;;;;;;;35.37;21.33;;;;;;;3.27;100.00;94431.91;5020164;28;20238;-73
2022/04/20 05:54:12;;;;;;;42.33;24.40;;;;;;;3.32;100.00;94421.91;5019695;28;20216;-72
2022/04/20 05:56:39;;;;;;;43.53;22.43;;;;;;;3.46;100.00;94416.94;5021184;28;20268;-75
2022/04/20 05:59:06;;;;;;;34.47;21.50;;;;;;;3.63;100.00;94420.88;5018983;28;20302;-73
2022/04/20 06:01:33;;;;;;;32.37;19.03;;;;;;;3.75;100.00;94425.34;5019028;28;20532;-73
2022/04/20 06:04:00;;;;;;;33.37;21.87;;;;;;;3.87;100.00;94430.81;5021423;28;20202;-73
2022/04/20 06:06:27;;;;;;;36.03;22.23;;;;;;;3.88;100.00;94428.06;5019971;28;20594;-73
2022/04/20 06:08:55;;;;;;;35.53;20.47;;;;;;;3.95;100.00;94431.50;5019879;28;20203;-73
2022/04/20 06:11:22;;;;;;;33.33;20.57;;;;;;;4.03;100.00;94425.44;5020720;28;20195;-72
2022/04/20 06:13:48;;;;;;;36.03;20.00;;;;;;;4.09;100.00;94427.28;5018940;28;20197;-72
2022/04/20 06:16:15;;;;;;;51.47;29.63;;;;;;;4.14;100.00;94419.00;5020841;28;20674;-73
2022/04/20 06:18:42;;;;;;;33.63;20.60;;;;;;;4.15;100.00;94413.69;5018426;28;20195;-73
2022/04/20 06:21:09;;;;;;;27.33;18.60;;;;;;;4.17;100.00;94423.78;5018969;28;20223;-73
2022/04/20 06:23:37;;;;;;;34.83;20.77;;;;;;;4.26;100.00;94417.53;5020075;28;20199;-72
2022/04/20 06:26:05;;;;;;;32.13;19.17;;;;;;;4.32;100.00;94407.31;5020069;28;20250;-72
2022/04/20 06:28:32;;;;;;;30.90;20.53;;;;;;;4.36;100.00;94413.66;5019585;28;20291;-73
2022/04/20 06:30:59;;;;;;;46.37;25.97;;;;;;;4.43;100.00;94414.53;5017984;28;20703;-72
2022/04/20 06:33:26;;;;;;;52.73;34.23;;;;;;;4.38;100.00;94406.59;5019885;28;20190;-72
2022/04/20 06:35:53;;;;;;;55.00;34.80;;;;;;;4.36;100.00;94405.16;5019498;28;20554;-72
2022/04/20 06:38:20;;;;;;;42.53;27.57;;;;;;;4.33;100.00;94410.69;5018157;28;20299;-76
2022/04/20 06:40:47;;;;;;;38.77;25.60;;;;;;;4.35;100.00;94399.22;5022059;28;20279;-76
2022/04/20 06:43:15;;;;;;;29.90;19.03;;;;;;;4.39;100.00;94402.22;5019182;28;20658;-80
2022/04/20 06:45:44;;;;;;;26.03;17.00;;;;;;;4.41;100.00;94405.41;5020808;28;20274;-79
2022/04/20 06:48:11;;;;;;;25.83;15.40;;;;;;;4.35;100.00;94416.44;5016575;28;20192;-79
2022/04/20 06:50:43;;;;;;;27.63;16.60;;;;;;;4.44;100.00;94415.31;5017456;28;20196;-83
2022/04/20 06:58:41;;;;;;;46.53;31.80;;;;;;;4.16;100.00;94402.41;5019006;28;20393;-83
2022/04/20 07:01:09;;;;;;;62.60;38.43;;;;;;;4.01;100.00;94383.72;5021736;28;20579;-81
2022/04/20 07:03:37;;;;;;;60.70;38.27;;;;;;;4.07;100.00;94392.47;5021928;28;20226;-86
2022/04/20 07:06:05;;;;;;;52.10;32.50;;;;;;;4.01;100.00;94384.50;5023684;28;20210;-86
2022/04/20 07:08:34;;;;;;;52.23;33.50;;;;;;;3.97;100.00;94379.91;5026151;28;20246;-84
2022/04/20 07:11:04;;;;;;;52.13;33.83;;;;;;;4.02;100.00;94390.44;5021421;28;20582;-83
2022/04/20 07:13:30;;;;;;;46.70;30.33;;;;;;;3.96;100.00;94398.88;5023834;28;20219;-83
2022/04/20 07:16:00;;;;;;;45.50;30.10;;;;;;;4.10;100.00;94413.44;5026673;28;20202;-84
2022/04/20 07:18:27;;;;;;;46.77;30.47;;;;;;;4.11;100.00;94424.53;5023677;28;20195;-84
2022/04/20 07:20:54;;;;;;;73.27;42.47;;;;;;;4.15;100.00;94420.63;5022967;28;20303;-83
2022/04/20 07:23:21;;;;;;;66.43;39.87;;;;;;;4.18;100.00;94418.47;5023102;28;20703;-83
2022/04/20 07:25:48;;;;;;;53.10;34.83;;;;;;;4.24;100.00;94416.94;5021643;28;20216;-83
2022/04/20 07:28:15;;;;;;;40.80;26.23;;;;;;;4.26;100.00;94410.63;5021356;28;20684;-84
2022/04/20 07:30:42;;;;;;;40.60;26.07;;;;;;;4.38;100.00;94416.88;5020764;28;20192;-84
2022/04/20 07:33:10;;;;;;;40.13;26.33;;;;;;;4.38;100.00;94406.59;5020561;28;20203;-84
2022/04/20 07:35:37;;;;;;;40.33;26.97;;;;;;;4.50;100.00;94412.78;5020991;28;20205;-84
2022/04/20 07:38:04;;;;;;;41.20;27.30;;;;;;;4.48;100.00;94401.09;5023047;28;20290;-81
2022/04/20 07:40:32;;;;;;;43.30;28.13;;;;;;;4.53;100.00;94406.50;5022718;28;20195;-76
2022/04/20 07:43:02;;;;;;;38.60;25.67;;;;;;;4.49;100.00;94394.97;5020999;28;20254;-76
2022/04/20 07:45:30;;;;;;;42.03;26.17;;;;;;;4.63;100.00;94412.09;5024869;28;20200;-76
2022/04/20 07:47:58;;;;;;;40.13;26.87;;;;;;;4.69;100.00;94418.28;5023339;28;20664;-78
2022/04/20 07:50:27;;;;;;;39.50;25.60;;;;;;;4.69;100.00;94411.34;5021713;28;20197;-78
2022/04/20 07:52:55;;;;;;;37.83;24.53;;;;;;;4.73;100.00;94414.34;5023593;28;20706;-80
2022/04/20 07:55:24;;;;;;;41.33;25.30;;;;;;;4.70;100.00;94409.56;5025619;28;20267;-79
2022/04/20 07:57:53;;;;;;;43.60;27.77;;;;;;;4.78;100.00;94423.09;5020299;28;20192;-78
2022/04/20 08:00:22;;;;;;;46.20;30.03;;;;;;;4.77;100.00;94412.97;5020487;28;20195;-80
2022/04/20 08:02:49;;;;;;;49.90;33.87;;;;;;;4.71;100.00;94409.38;5022084;28;20209;-79
2022/04/20 08:05:17;;;;;;;56.03;35.37;;;;;;;4.70;100.00;94407.00;5022225;28;20287;-79
2022/04/20 08:07:46;;;;;;;65.17;38.63;;;;;;;4.52;100.00;94397.97;5020657;28;20223;-79
2022/04/20 08:10:14;;;;;;;58.87;38.00;;;;;;;4.43;100.00;94390.56;5020526;28;20577;-80
2022/04/20 08:12:42;;;;;;;62.23;37.33;;;;;;;4.39;100.00;94387.56;5020160;28;20192;-78
2022/04/20 08:15:10;;;;;;;61.07;37.90;;;;;;;4.45;100.00;94391.16;5021209;28;20195;-79
2022/04/20 08:17:38;;;;;;;81.93;47.93;;;;;;;4.50;100.00;94389.63;5022406;28;20688;-80
2022/04/20 08:20:08;;;;;;;100.67;58.63;;;;;;;4.58;100.00;94391.28;5023668;28;20638;-79
2022/04/20 08:22:40;;;;;;;67.23;43.00;;;;;;;4.55;100.00;94387.31;5021004;28;20198;-79
2022/04/20 08:25:11;;;;;;;60.13;39.13;;;;;;;4.55;100.00;94386.50;5022095;28;20681;-78
2022/04/20 08:27:38;;;;;;;68.33;40.10;;;;;;;4.62;100.00;94386.56;5025656;28;20215;-78
2022/04/20 08:30:07;;;;;;;60.77;37.97;;;;;;;4.64;100.00;94374.28;5020931;28;20204;-79
2022/04/20 08:32:34;;;;;;;57.00;33.90;;;;;;;4.71;100.00;94368.19;5019885;28;20195;-79
2022/04/20 08:35:02;;;;;;;51.97;33.20;;;;;;;4.69;100.00;94359.88;5020347;28;20223;-80
2022/04/20 08:37:29;;;;;;;62.07;39.00;;;;;;;4.90;100.00;94371.88;5021172;28;20200;-79
2022/04/20 08:39:56;;;;;;;57.27;36.57;;;;;;;4.89;100.00;94372.84;5021945;28;20208;-78
2022/04/20 08:42:26;;;;;;;50.53;33.23;;;;;;;4.87;100.00;94354.25;5017730;28;20208;-78
2022/04/20 08:45:01;;;;;;;46.10;29.60;;;;;;;4.78;100.00;94358.75;5011820;28;20240;-79
2022/04/20 08:47:29;;;;;;;43.63;28.97;;;;;;;4.80;100.00;94353.41;5020962;28;20216;-77
2022/04/20 08:49:58;;;;;;;45.70;29.00;;;;;;;4.74;100.00;94344.66;5022944;28;20193;-79
2022/04/20 08:52:38;;;;;;;44.50;27.90;;;;;;;4.70;100.00;94347.81;5019219;28;20200;-79
2022/04/20 08:55:07;;;;;;;44.20;28.57;;;;;;;4.78;100.00;94343.31;5021253;28;20191;-78
2022/04/20 08:57:37;;;;;;;47.90;28.83;;;;;;;4.83;100.00;94340.16;5019904;28;20247;-79
2022/04/20 09:00:06;;;;;;;43.60;28.70;;;;;;;4.87;100.00;94349.88;5020069;28;20203;-79
2022/04/20 09:02:33;;;;;;;45.70;29.37;;;;;;;4.94;100.00;94350.69;5020325;28;20207;-80
2022/04/20 09:05:00;;;;;;;45.17;29.13;;;;;;;4.95;100.00;94334.28;5021864;28;20268;-79
2022/04/20 09:07:27;;;;;;;53.43;31.03;;;;;;;4.96;100.00;94340.22;5020092;28;20224;-78
2022/04/20 09:09:53;;;;;;;45.13;29.20;;;;;;;4.99;100.00;94329.53;5019817;28;20195;-79
2022/04/20 09:12:23;;;;;;;50.53;30.87;;;;;;;5.07;100.00;94334.53;5018902;28;20655;-79
2022/04/20 09:14:53;;;;;;;42.37;28.10;;;;;;;5.11;100.00;94333.94;5024679;28;20263;-79
2022/04/20 09:17:21;;;;;;;46.20;29.30;;;;;;;5.06;100.00;94307.97;5018780;28;20200;-79
2022/04/20 09:19:51;;;;;;;41.63;26.10;;;;;;;5.27;100.00;94314.78;5020547;28;20597;-79
2022/04/20 09:22:21;;;;;;;41.03;24.43;;;;;;;5.32;100.00;94309.84;5021085;28;20224;-80
2022/04/20 09:25:06;;;;;;;33.73;21.97;;;;;;;5.35;100.00;94299.16;5018230;28;20243;-80
2022/04/20 09:27:35;;;;;;;28.63;20.10;;;;;;;5.45;100.00;94299.59;5020661;28;20297;-80
2022/04/20 09:30:05;;;;;;;38.20;21.70;;;;;;;5.60;100.00;94305.34;5019223;28;20308;-80
2022/04/20 09:32:33;;;;;;;31.73;20.63;;;;;;;5.70;100.00;94313.50;5020182;28;20698;-78
2022/04/20 09:35:03;;;;;;;29.87;19.37;;;;;;;5.69;100.00;94308.53;5021145;28;20579;-78
2022/04/20 09:37:32;;;;;;;25.63;18.23;;;;;;;5.64;100.00;94291.09;5020315;28;20200;-78
2022/04/20 09:40:00;;;;;;;26.13;16.93;;;;;;;5.77;100.00;94292.09;5019145;28;20799;-79
2022/04/20 09:42:27;;;;;;;26.93;18.03;;;;;;;5.89;100.00;94293.13;5018488;28;20668;-79
2022/04/20 09:44:57;;;;;;;26.50;17.73;;;;;;;5.81;100.00;94280.38;5023227;28;20214;-79
2022/04/20 09:50:11;;;;;;;28.23;18.20;;;;;;;5.89;100.00;94298.28;5020393;28;20301;-79
2022/04/20 09:52:40;;;;;;;30.63;19.20;;;;;;;5.90;100.00;94284.38;5018308;28;20193;-79
2022/04/20 09:55:09;;;;;;;37.00;22.73;;;;;;;5.87;100.00;94269.31;5021771;28;20228;-80
2022/04/20 09:57:37;;;;;;;28.90;19.40;;;;;;;5.90;100.00;94286.97;5019108;28;20727;-80
2022/04/20 10:00:09;;;;;;;28.47;19.07;;;;;;;5.80;100.00;94281.38;5020674;28;20189;-81
2022/04/20 10:02:46;;;;;;;32.90;18.97;;;;;;;5.84;100.00;94285.94;5023805;28;20204;-79
2022/04/20 10:05:13;;;;;;;27.87;18.83;;;;;;;5.96;100.00;94286.16;5023152;28;20186;-80
2022/04/20 10:07:40;;;;;;;29.67;19.20;;;;;;;6.07;100.00;94281.22;5018174;28;20218;-81
2022/04/20 10:10:09;;;;;;;28.60;18.70;;;;;;;6.11;100.00;94277.25;5021418;28;20561;-80
2022/04/20 10:12:38;;;;;;;28.20;18.37;;;;;;;6.23;100.00;94267.88;5017715;28;20645;-79
2022/04/20 10:17:56;;;;;;;25.97;17.80;;;;;;;6.37;100.00;94276.41;5019652;28;20628;-80
2022/04/20 10:20:25;;;;;;;29.43;19.70;;;;;;;6.45;100.00;94275.41;5019474;28;20226;-79
2022/04/20 10:22:53;;;;;;;24.17;17.20;;;;;;;6.49;100.00;94267.06;5017984;28;20227;-80
2022/04/20 10:25:20;;;;;;;26.07;16.53;;;;;;;6.44;100.00;94266.88;5020981;28;20234;-81
2022/04/20 10:28:01;;;;;;;23.60;16.13;;;;;;;6.37;100.00;94253.19;5018284;28;20280;-79
2022/04/20 10:30:33;;;;;;;24.67;17.27;;;;;;;6.40;100.00;94254.56;5023103;28;20198;-79
2022/04/20 10:33:09;;;;;;;25.90;17.87;;;;;;;6.34;100.00;94232.97;5023006;28;20183;-79
2022/04/20 10:35:57;;;;;;;26.23;18.53;;;;;;;6.40;100.00;94245.06;5022344;28;20654;-79
2022/04/20 10:38:25;;;;;;;27.77;17.13;;;;;;;6.54;100.00;94248.38;5023091;28;20547;-78
2022/04/20 10:41:06;;;;;;;27.77;17.47;;;;;;;6.62;100.00;94238.63;5022472;28;20191;-79
2022/04/20 10:43:35;;;;;;;24.93;16.63;;;;;;;6.60;100.00;94230.31;5024890;28;20575;-79
2022/04/20 10:46:14;;;;;;;19.60;13.57;;;;;;;6.63;100.00;94235.06;5027332;28;20639;-80
2022/04/20 10:48:55;;;;;;;16.13;11.77;;;;;;;6.58;100.00;94221.94;5022662;28;20190;-78
2022/04/20 10:51:24;;;;;;;20.03;12.83;;;;;;;6.62;100.00;94223.13;5018458;28;20293;-79
2022/04/20 10:53:52;;;;;;;17.37;12.03;;;;;;;6.66;100.00;94228.69;5021261;28;20203;-79
2022/04/20 10:56:19;;;;;;;75.63;44.67;;;;;;;6.62;100.00;94217.19;5021205;28;20676;-79
2022/04/20 10:59:11;;;;;;;89.00;53.10;;;;;;;6.60;100.00;94219.19;5021182;28;20270;-80
2022/04/20 11:02:07;;;;;;;94.47;54.13;;;;;;;6.55;100.00;94224.16;5021231;28;20206;-80
2022/04/20 11:04:39;;;;;;;87.73;51.33;;;;;;;6.56;100.00;94229.13;5026068;28;20205;-80
2022/04/20 11:07:26;;;;;;;87.03;48.53;;;;;;;6.56;100.00;94216.22;5021948;28;20305;-81
2022/04/20 11:10:08;;;;;;;48.83;31.53;;;;;;;6.59;100.00;94233.06;5023693;28;20187;-79
2022/04/20 11:21:19;;;;;;;80.37;47.23;;;;;;;6.23;100.00;94236.94;5022087;28;20247;-78
2022/04/20 11:24:07;;;;;;;95.57;55.97;;;;;;;5.65;100.00;94233.41;5022463;28;20206;-79
2022/04/20 11:26:38;;;;;;;89.23;52.07;;;;;;;5.39;100.00;94228.22;5023907;28;20198;-80
2022/04/20 11:29:10;;;;;;;90.67;52.97;;;;;;;5.47;100.00;94235.75;5022392;28;20739;-79
2022/04/20 11:31:38;;;;;;;85.73;51.17;;;;;;;5.54;100.00;94241.69;5020775;28;20269;-79
2022/04/20 11:34:06;;;;;;;78.20;46.43;;;;;;;5.48;100.00;94241.72;5021878;28;20193;-79
2022/04/20 11:36:39;;;;;;;85.73;51.83;;;;;;;5.26;100.00;94223.03;5023034;28;20233;-79
2022/04/20 11:39:06;;;;;;;83.83;49.13;;;;;;;5.10;100.00;94226.78;5022721;28;20786;-79
2022/04/20 11:41:34;;;;;;;78.63;44.97;;;;;;;4.98;100.00;94225.75;5020059;28;20201;-79
2022/04/20 11:44:03;;;;;;;64.97;38.90;;;;;;;4.63;100.00;94226.03;5022944;28;20275;-81
2022/04/20 11:46:31;;;;;;;66.50;37.57;;;;;;;4.30;100.00;94231.03;5020603;28;20242;-79
2022/04/20 11:48:59;;;;;;;70.03;41.53;;;;;;;4.13;100.00;94232.31;5021283;28;20255;-78
2022/04/20 11:51:31;;;;;;;64.73;39.93;;;;;;;4.14;100.00;94231.31;5021752;28;20202;-78
2022/04/20 11:53:59;;;;;;;64.97;38.57;;;;;;;4.03;100.00;94239.56;5020773;28;20253;-79